sensor_id;sensor_type;location;lat;lon;timestamp;P1;durP1;ratioP1;P2;durP2;ratioP2
6598;SDS011;3335;43.198;27.918;2023-03-23T00:00:52;8.17;;;4.90;;
6598;SDS011;3335;43.198;27.918;2023-03-23T00:03:20;13.00;;;5.30;;
6598;SDS011;3335;43.198;27.918;2023-03-23T00:05:49;11.27;;;5.20;;
6598;SDS011;3335;43.198;27.918;2023-03-23T00:08:17;9.50;;;5.63;;
6598;SDS011;3335;43.198;27.918;2023-03-23T00:10:47;8.40;;;5.17;;
6598;SDS011;3335;43.198;27.918;2023-03-23T00:13:17;6.80;;;5.10;;
6598;SDS011;3335;43.198;27.918;2023-03-23T00:15:45;8.17;;;4.70;;
6598;SDS011;3335;43.198;27.918;2023-03-23T00:18:14;14.07;;;5.43;;
6598;SDS011;3335;43.198;27.918;2023-03-23T00:20:46;9.73;;;6.00;;
6598;SDS011;3335;43.198;27.918;2023-03-23T00:23:16;12.43;;;5.80;;
6598;SDS011;3335;43.198;27.918;2023-03-23T00:25:49;10.27;;;5.37;;
6598;SDS011;3335;43.198;27.918;2023-03-23T00:28:18;10.20;;;5.77;;
6598;SDS011;3335;43.198;27.918;2023-03-23T00:30:53;14.77;;;6.07;;
6598;SDS011;3335;43.198;27.918;2023-03-23T00:33:21;8.83;;;5.90;;
6598;SDS011;3335;43.198;27.918;2023-03-23T00:35:50;8.57;;;5.70;;
6598;SDS011;3335;43.198;27.918;2023-03-23T00:38:18;9.97;;;6.00;;
6598;SDS011;3335;43.198;27.918;2023-03-23T00:40:45;7.17;;;5.30;;
6598;SDS011;3335;43.198;27.918;2023-03-23T00:43:13;9.90;;;5.80;;
6598;SDS011;3335;43.198;27.918;2023-03-23T00:45:41;12.70;;;5.43;;
6598;SDS011;3335;43.198;27.918;2023-03-23T00:48:10;10.97;;;6.07;;
6598;SDS011;3335;43.198;27.918;2023-03-23T00:50:38;9.93;;;5.40;;
6598;SDS011;3335;43.198;27.918;2023-03-23T00:53:07;8.87;;;5.30;;
6598;SDS011;3335;43.198;27.918;2023-03-23T00:55:34;14.20;;;6.23;;
6598;SDS011;3335;43.198;27.918;2023-03-23T00:58:00;12.10;;;6.33;;
6598;SDS011;3335;43.198;27.918;2023-03-23T01:00:27;10.83;;;6.20;;
6598;SDS011;3335;43.198;27.918;2023-03-23T01:02:55;11.43;;;6.13;;
6598;SDS011;3335;43.198;27.918;2023-03-23T01:05:21;9.20;;;5.70;;
6598;SDS011;3335;43.198;27.918;2023-03-23T01:07:48;11.47;;;6.40;;
6598;SDS011;3335;43.198;27.918;2023-03-23T01:10:17;10.03;;;6.10;;
6598;SDS011;3335;43.198;27.918;2023-03-23T01:12:44;8.87;;;5.83;;
6598;SDS011;3335;43.198;27.918;2023-03-23T01:15:15;14.33;;;6.37;;
6598;SDS011;3335;43.198;27.918;2023-03-23T01:17:43;13.57;;;6.03;;
6598;SDS011;3335;43.198;27.918;2023-03-23T01:20:11;9.30;;;5.70;;
6598;SDS011;3335;43.198;27.918;2023-03-23T01:22:39;9.23;;;5.87;;
6598;SDS011;3335;43.198;27.918;2023-03-23T01:25:07;12.20;;;5.97;;
6598;SDS011;3335;43.198;27.918;2023-03-23T01:27:36;11.40;;;6.37;;
6598;SDS011;3335;43.198;27.918;2023-03-23T01:30:04;11.37;;;6.97;;
6598;SDS011;3335;43.198;27.918;2023-03-23T01:32:33;16.17;;;7.30;;
6598;SDS011;3335;43.198;27.918;2023-03-23T01:35:00;13.27;;;6.43;;
6598;SDS011;3335;43.198;27.918;2023-03-23T01:37:27;9.30;;;6.37;;
6598;SDS011;3335;43.198;27.918;2023-03-23T01:39:54;15.90;;;8.00;;
6598;SDS011;3335;43.198;27.918;2023-03-23T01:42:22;11.77;;;6.13;;
6598;SDS011;3335;43.198;27.918;2023-03-23T01:47:56;9.83;;;5.90;;
6598;SDS011;3335;43.198;27.918;2023-03-23T01:50:27;8.00;;;5.03;;
6598;SDS011;3335;43.198;27.918;2023-03-23T01:52:56;10.93;;;5.43;;
6598;SDS011;3335;43.198;27.918;2023-03-23T01:55:26;9.60;;;5.00;;
6598;SDS011;3335;43.198;27.918;2023-03-23T01:57:54;10.90;;;5.50;;
6598;SDS011;3335;43.198;27.918;2023-03-23T02:00:23;10.73;;;5.83;;
6598;SDS011;3335;43.198;27.918;2023-03-23T02:02:51;8.97;;;5.63;;
6598;SDS011;3335;43.198;27.918;2023-03-23T02:05:23;9.70;;;5.93;;
6598;SDS011;3335;43.198;27.918;2023-03-23T02:07:56;8.63;;;5.73;;
6598;SDS011;3335;43.198;27.918;2023-03-23T02:10:28;8.63;;;6.20;;
6598;SDS011;3335;43.198;27.918;2023-03-23T02:12:56;9.03;;;6.00;;
6598;SDS011;3335;43.198;27.918;2023-03-23T02:15:24;10.43;;;6.07;;
6598;SDS011;3335;43.198;27.918;2023-03-23T02:17:56;11.07;;;5.53;;
6598;SDS011;3335;43.198;27.918;2023-03-23T02:20:42;8.50;;;5.40;;
6598;SDS011;3335;43.198;27.918;2023-03-23T02:23:38;10.57;;;6.67;;
6598;SDS011;3335;43.198;27.918;2023-03-23T02:26:21;12.63;;;6.90;;
6598;SDS011;3335;43.198;27.918;2023-03-23T02:29:04;10.83;;;6.60;;
6598;SDS011;3335;43.198;27.918;2023-03-23T02:31:44;13.93;;;7.43;;
6598;SDS011;3335;43.198;27.918;2023-03-23T02:34:24;11.00;;;6.87;;
6598;SDS011;3335;43.198;27.918;2023-03-23T02:36:55;14.07;;;6.70;;
6598;SDS011;3335;43.198;27.918;2023-03-23T02:39:25;18.97;;;9.50;;
6598;SDS011;3335;43.198;27.918;2023-03-23T02:42:00;18.80;;;10.73;;
6598;SDS011;3335;43.198;27.918;2023-03-23T02:44:31;26.20;;;11.60;;
6598;SDS011;3335;43.198;27.918;2023-03-23T02:47:02;22.63;;;12.57;;
6598;SDS011;3335;43.198;27.918;2023-03-23T02:49:36;28.50;;;13.50;;
6598;SDS011;3335;43.198;27.918;2023-03-23T02:52:08;25.63;;;12.87;;
6598;SDS011;3335;43.198;27.918;2023-03-23T02:54:40;25.03;;;13.53;;
6598;SDS011;3335;43.198;27.918;2023-03-23T02:57:09;28.93;;;14.97;;
6598;SDS011;3335;43.198;27.918;2023-03-23T02:59:36;28.33;;;14.47;;
6598;SDS011;3335;43.198;27.918;2023-03-23T03:02:05;26.97;;;14.87;;
6598;SDS011;3335;43.198;27.918;2023-03-23T03:04:37;29.53;;;13.93;;
6598;SDS011;3335;43.198;27.918;2023-03-23T03:07:10;27.87;;;14.43;;
6598;SDS011;3335;43.198;27.918;2023-03-23T03:09:50;32.83;;;14.30;;
6598;SDS011;3335;43.198;27.918;2023-03-23T03:12:21;33.07;;;14.00;;
6598;SDS011;3335;43.198;27.918;2023-03-23T03:14:57;31.00;;;13.97;;
6598;SDS011;3335;43.198;27.918;2023-03-23T03:17:33;31.63;;;14.10;;
6598;SDS011;3335;43.198;27.918;2023-03-23T03:20:06;30.53;;;14.77;;
6598;SDS011;3335;43.198;27.918;2023-03-23T03:22:37;32.20;;;14.87;;
6598;SDS011;3335;43.198;27.918;2023-03-23T03:25:07;30.73;;;14.97;;
6598;SDS011;3335;43.198;27.918;2023-03-23T03:27:37;30.77;;;15.67;;
6598;SDS011;3335;43.198;27.918;2023-03-23T03:30:07;26.67;;;14.17;;
6598;SDS011;3335;43.198;27.918;2023-03-23T03:32:38;29.20;;;12.87;;
6598;SDS011;3335;43.198;27.918;2023-03-23T03:35:13;26.07;;;14.20;;
6598;SDS011;3335;43.198;27.918;2023-03-23T03:37:40;26.47;;;14.07;;
6598;SDS011;3335;43.198;27.918;2023-03-23T03:40:09;31.97;;;14.87;;
6598;SDS011;3335;43.198;27.918;2023-03-23T03:42:38;31.73;;;14.40;;
6598;SDS011;3335;43.198;27.918;2023-03-23T03:45:07;31.03;;;15.40;;
6598;SDS011;3335;43.198;27.918;2023-03-23T03:47:38;27.27;;;14.40;;
6598;SDS011;3335;43.198;27.918;2023-03-23T03:50:05;34.00;;;15.33;;
6598;SDS011;3335;43.198;27.918;2023-03-23T03:52:35;29.27;;;14.90;;
6598;SDS011;3335;43.198;27.918;2023-03-23T03:55:03;29.00;;;14.43;;
6598;SDS011;3335;43.198;27.918;2023-03-23T03:57:32;24.87;;;13.77;;
6598;SDS011;3335;43.198;27.918;2023-03-23T03:59:59;30.53;;;14.63;;
6598;SDS011;3335;43.198;27.918;2023-03-23T04:02:29;27.83;;;14.10;;
6598;SDS011;3335;43.198;27.918;2023-03-23T04:04:56;30.47;;;15.50;;
6598;SDS011;3335;43.198;27.918;2023-03-23T04:07:23;26.97;;;16.30;;
6598;SDS011;3335;43.198;27.918;2023-03-23T04:09:52;29.67;;;15.50;;
6598;SDS011;3335;43.198;27.918;2023-03-23T04:12:20;28.70;;;15.37;;
6598;SDS011;3335;43.198;27.918;2023-03-23T04:14:47;28.70;;;15.70;;
6598;SDS011;3335;43.198;27.918;2023-03-23T04:17:14;27.03;;;15.73;;
6598;SDS011;3335;43.198;27.918;2023-03-23T04:19:42;25.03;;;15.53;;
6598;SDS011;3335;43.198;27.918;2023-03-23T04:22:09;29.47;;;14.60;;
6598;SDS011;3335;43.198;27.918;2023-03-23T04:24:37;31.13;;;15.13;;
6598;SDS011;3335;43.198;27.918;2023-03-23T04:27:05;29.67;;;14.50;;
6598;SDS011;3335;43.198;27.918;2023-03-23T04:29:32;28.60;;;14.47;;
6598;SDS011;3335;43.198;27.918;2023-03-23T04:31:59;28.80;;;14.57;;
6598;SDS011;3335;43.198;27.918;2023-03-23T04:34:26;27.83;;;15.33;;
6598;SDS011;3335;43.198;27.918;2023-03-23T04:36:57;26.20;;;13.57;;
6598;SDS011;3335;43.198;27.918;2023-03-23T04:39:24;26.97;;;13.23;;
6598;SDS011;3335;43.198;27.918;2023-03-23T04:41:54;26.93;;;13.17;;
6598;SDS011;3335;43.198;27.918;2023-03-23T04:44:22;24.57;;;12.40;;
6598;SDS011;3335;43.198;27.918;2023-03-23T04:46:49;26.50;;;13.00;;
6598;SDS011;3335;43.198;27.918;2023-03-23T04:49:19;23.47;;;12.23;;
6598;SDS011;3335;43.198;27.918;2023-03-23T04:51:46;29.97;;;13.27;;
6598;SDS011;3335;43.198;27.918;2023-03-23T04:54:15;21.73;;;11.87;;
6598;SDS011;3335;43.198;27.918;2023-03-23T04:56:43;21.10;;;11.90;;
6598;SDS011;3335;43.198;27.918;2023-03-23T04:59:10;24.27;;;12.30;;
6598;SDS011;3335;43.198;27.918;2023-03-23T05:01:39;23.30;;;12.03;;
6598;SDS011;3335;43.198;27.918;2023-03-23T05:04:10;23.37;;;11.97;;
6598;SDS011;3335;43.198;27.918;2023-03-23T05:06:41;23.13;;;11.80;;
6598;SDS011;3335;43.198;27.918;2023-03-23T05:09:10;21.83;;;10.70;;
6598;SDS011;3335;43.198;27.918;2023-03-23T05:11:37;18.23;;;10.70;;
6598;SDS011;3335;43.198;27.918;2023-03-23T05:14:04;18.37;;;11.17;;
6598;SDS011;3335;43.198;27.918;2023-03-23T05:16:31;18.77;;;10.70;;
6598;SDS011;3335;43.198;27.918;2023-03-23T05:19:03;18.87;;;10.17;;
6598;SDS011;3335;43.198;27.918;2023-03-23T05:21:30;18.00;;;10.87;;
6598;SDS011;3335;43.198;27.918;2023-03-23T05:23:57;16.70;;;10.47;;
6598;SDS011;3335;43.198;27.918;2023-03-23T05:26:25;18.77;;;11.03;;
6598;SDS011;3335;43.198;27.918;2023-03-23T05:28:54;19.10;;;10.60;;
6598;SDS011;3335;43.198;27.918;2023-03-23T05:31:21;19.10;;;11.30;;
6598;SDS011;3335;43.198;27.918;2023-03-23T05:33:49;18.03;;;11.03;;
6598;SDS011;3335;43.198;27.918;2023-03-23T05:36:17;16.63;;;9.77;;
6598;SDS011;3335;43.198;27.918;2023-03-23T05:38:45;19.63;;;11.50;;
6598;SDS011;3335;43.198;27.918;2023-03-23T05:41:12;20.97;;;12.17;;
6598;SDS011;3335;43.198;27.918;2023-03-23T05:43:40;17.77;;;10.07;;
6598;SDS011;3335;43.198;27.918;2023-03-23T05:46:07;14.77;;;9.57;;
6598;SDS011;3335;43.198;27.918;2023-03-23T05:48:34;17.70;;;10.53;;
6598;SDS011;3335;43.198;27.918;2023-03-23T05:51:01;18.90;;;11.27;;
6598;SDS011;3335;43.198;27.918;2023-03-23T05:53:30;18.00;;;11.40;;
6598;SDS011;3335;43.198;27.918;2023-03-23T05:56:00;19.33;;;10.43;;
6598;SDS011;3335;43.198;27.918;2023-03-23T05:58:28;18.93;;;10.53;;
6598;SDS011;3335;43.198;27.918;2023-03-23T06:00:55;19.63;;;10.77;;
6598;SDS011;3335;43.198;27.918;2023-03-23T06:03:22;18.77;;;11.00;;
6598;SDS011;3335;43.198;27.918;2023-03-23T06:05:49;20.53;;;11.27;;
6598;SDS011;3335;43.198;27.918;2023-03-23T06:08:17;19.27;;;9.47;;
6598;SDS011;3335;43.198;27.918;2023-03-23T06:10:45;15.90;;;10.00;;
6598;SDS011;3335;43.198;27.918;2023-03-23T06:13:13;15.57;;;10.03;;
6598;SDS011;3335;43.198;27.918;2023-03-23T06:15:40;13.20;;;8.83;;
6598;SDS011;3335;43.198;27.918;2023-03-23T06:18:08;15.57;;;8.47;;
6598;SDS011;3335;43.198;27.918;2023-03-23T06:20:35;13.57;;;8.97;;
6598;SDS011;3335;43.198;27.918;2023-03-23T06:23:03;13.90;;;8.63;;
6598;SDS011;3335;43.198;27.918;2023-03-23T06:25:29;13.70;;;9.30;;
6598;SDS011;3335;43.198;27.918;2023-03-23T06:27:58;13.37;;;9.17;;
6598;SDS011;3335;43.198;27.918;2023-03-23T06:30:25;13.40;;;8.53;;
6598;SDS011;3335;43.198;27.918;2023-03-23T06:32:54;12.43;;;8.47;;
6598;SDS011;3335;43.198;27.918;2023-03-23T06:35:22;14.87;;;9.13;;
6598;SDS011;3335;43.198;27.918;2023-03-23T06:37:49;15.27;;;8.73;;
6598;SDS011;3335;43.198;27.918;2023-03-23T06:40:16;12.20;;;7.97;;
6598;SDS011;3335;43.198;27.918;2023-03-23T06:42:44;14.37;;;8.63;;
6598;SDS011;3335;43.198;27.918;2023-03-23T06:45:13;12.47;;;8.13;;
6598;SDS011;3335;43.198;27.918;2023-03-23T06:47:40;14.77;;;8.47;;
6598;SDS011;3335;43.198;27.918;2023-03-23T06:50:07;13.73;;;9.27;;
6598;SDS011;3335;43.198;27.918;2023-03-23T06:52:34;15.20;;;8.77;;
6598;SDS011;3335;43.198;27.918;2023-03-23T06:55:01;16.47;;;8.80;;
6598;SDS011;3335;43.198;27.918;2023-03-23T06:57:28;12.03;;;8.27;;
6598;SDS011;3335;43.198;27.918;2023-03-23T06:59:55;13.10;;;8.53;;
6598;SDS011;3335;43.198;27.918;2023-03-23T07:02:24;12.97;;;8.67;;
6598;SDS011;3335;43.198;27.918;2023-03-23T07:04:51;13.57;;;8.07;;
6598;SDS011;3335;43.198;27.918;2023-03-23T07:07:19;13.90;;;8.37;;
6598;SDS011;3335;43.198;27.918;2023-03-23T07:09:46;14.67;;;8.13;;
6598;SDS011;3335;43.198;27.918;2023-03-23T07:12:13;10.93;;;8.67;;
6598;SDS011;3335;43.198;27.918;2023-03-23T07:14:40;13.40;;;7.73;;
6598;SDS011;3335;43.198;27.918;2023-03-23T07:17:07;12.90;;;9.07;;
6598;SDS011;3335;43.198;27.918;2023-03-23T07:19:36;15.43;;;9.03;;
6598;SDS011;3335;43.198;27.918;2023-03-23T07:22:03;13.83;;;8.63;;
6598;SDS011;3335;43.198;27.918;2023-03-23T07:24:31;11.80;;;8.00;;
6598;SDS011;3335;43.198;27.918;2023-03-23T07:26:58;11.97;;;7.77;;
6598;SDS011;3335;43.198;27.918;2023-03-23T07:29:25;10.97;;;7.37;;
6598;SDS011;3335;43.198;27.918;2023-03-23T07:31:53;13.43;;;8.00;;
6598;SDS011;3335;43.198;27.918;2023-03-23T07:34:20;14.97;;;9.93;;
6598;SDS011;3335;43.198;27.918;2023-03-23T07:36:48;12.90;;;7.83;;
6598;SDS011;3335;43.198;27.918;2023-03-23T07:39:15;11.73;;;8.10;;
6598;SDS011;3335;43.198;27.918;2023-03-23T07:41:42;13.83;;;9.00;;
6598;SDS011;3335;43.198;27.918;2023-03-23T07:44:09;13.80;;;8.27;;
6598;SDS011;3335;43.198;27.918;2023-03-23T07:46:36;15.17;;;8.63;;
6598;SDS011;3335;43.198;27.918;2023-03-23T07:49:03;12.73;;;8.50;;
6598;SDS011;3335;43.198;27.918;2023-03-23T07:51:31;12.27;;;8.17;;
6598;SDS011;3335;43.198;27.918;2023-03-23T07:54:00;18.03;;;8.90;;
6598;SDS011;3335;43.198;27.918;2023-03-23T07:56:29;12.03;;;9.10;;
6598;SDS011;3335;43.198;27.918;2023-03-23T07:58:56;11.63;;;8.20;;
6598;SDS011;3335;43.198;27.918;2023-03-23T08:01:23;11.93;;;7.93;;
6598;SDS011;3335;43.198;27.918;2023-03-23T08:03:50;13.50;;;8.60;;
6598;SDS011;3335;43.198;27.918;2023-03-23T08:06:19;13.73;;;8.37;;
6598;SDS011;3335;43.198;27.918;2023-03-23T08:08:46;10.93;;;7.37;;
6598;SDS011;3335;43.198;27.918;2023-03-23T08:11:15;11.37;;;7.67;;
6598;SDS011;3335;43.198;27.918;2023-03-23T08:13:42;11.20;;;7.43;;
6598;SDS011;3335;43.198;27.918;2023-03-23T08:16:08;12.27;;;8.03;;
6598;SDS011;3335;43.198;27.918;2023-03-23T08:18:36;13.37;;;8.57;;
6598;SDS011;3335;43.198;27.918;2023-03-23T08:21:04;10.73;;;7.83;;
6598;SDS011;3335;43.198;27.918;2023-03-23T08:23:33;12.60;;;8.17;;
6598;SDS011;3335;43.198;27.918;2023-03-23T08:26:01;11.13;;;7.57;;
6598;SDS011;3335;43.198;27.918;2023-03-23T08:28:30;12.23;;;8.83;;
6598;SDS011;3335;43.198;27.918;2023-03-23T08:30:57;11.63;;;8.07;;
6598;SDS011;3335;43.198;27.918;2023-03-23T08:33:23;11.70;;;7.70;;
6598;SDS011;3335;43.198;27.918;2023-03-23T08:35:54;13.27;;;8.80;;
6598;SDS011;3335;43.198;27.918;2023-03-23T08:38:22;16.27;;;9.10;;
6598;SDS011;3335;43.198;27.918;2023-03-23T08:40:49;12.70;;;8.70;;
6598;SDS011;3335;43.198;27.918;2023-03-23T08:43:16;12.60;;;8.37;;
6598;SDS011;3335;43.198;27.918;2023-03-23T08:45:45;14.90;;;9.03;;
6598;SDS011;3335;43.198;27.918;2023-03-23T08:48:13;15.57;;;8.87;;
6598;SDS011;3335;43.198;27.918;2023-03-23T08:50:40;13.77;;;8.97;;
6598;SDS011;3335;43.198;27.918;2023-03-23T08:53:07;14.37;;;9.20;;
6598;SDS011;3335;43.198;27.918;2023-03-23T08:55:34;12.67;;;8.43;;
6598;SDS011;3335;43.198;27.918;2023-03-23T08:58:01;13.20;;;8.33;;
6598;SDS011;3335;43.198;27.918;2023-03-23T09:00:28;14.63;;;8.40;;
6598;SDS011;3335;43.198;27.918;2023-03-23T09:02:57;12.97;;;8.93;;
6598;SDS011;3335;43.198;27.918;2023-03-23T09:05:25;16.03;;;9.43;;
6598;SDS011;3335;43.198;27.918;2023-03-23T09:07:54;13.47;;;9.43;;
6598;SDS011;3335;43.198;27.918;2023-03-23T09:10:24;15.37;;;9.40;;
6598;SDS011;3335;43.198;27.918;2023-03-23T09:12:52;19.00;;;10.10;;
6598;SDS011;3335;43.198;27.918;2023-03-23T09:15:21;17.60;;;10.07;;
6598;SDS011;3335;43.198;27.918;2023-03-23T09:17:49;21.90;;;10.60;;
6598;SDS011;3335;43.198;27.918;2023-03-23T09:20:20;17.60;;;10.43;;
6598;SDS011;3335;43.198;27.918;2023-03-23T09:22:49;17.20;;;10.57;;
6598;SDS011;3335;43.198;27.918;2023-03-23T09:25:18;16.43;;;10.33;;
6598;SDS011;3335;43.198;27.918;2023-03-23T09:27:48;16.33;;;9.50;;
6598;SDS011;3335;43.198;27.918;2023-03-23T09:30:17;16.20;;;10.30;;
6598;SDS011;3335;43.198;27.918;2023-03-23T09:32:45;20.30;;;9.30;;
6598;SDS011;3335;43.198;27.918;2023-03-23T09:35:13;21.40;;;12.00;;
6598;SDS011;3335;43.198;27.918;2023-03-23T09:37:43;17.43;;;10.53;;
6598;SDS011;3335;43.198;27.918;2023-03-23T09:40:11;18.40;;;11.10;;
6598;SDS011;3335;43.198;27.918;2023-03-23T09:42:56;19.13;;;11.43;;
6598;SDS011;3335;43.198;27.918;2023-03-23T09:45:31;21.27;;;11.47;;
6598;SDS011;3335;43.198;27.918;2023-03-23T09:48:11;26.63;;;11.53;;
6598;SDS011;3335;43.198;27.918;2023-03-23T09:51:01;28.17;;;11.40;;
6598;SDS011;3335;43.198;27.918;2023-03-23T09:53:37;18.13;;;9.80;;
6598;SDS011;3335;43.198;27.918;2023-03-23T09:56:09;24.63;;;10.40;;
6598;SDS011;3335;43.198;27.918;2023-03-23T09:58:41;24.60;;;9.33;;
6598;SDS011;3335;43.198;27.918;2023-03-23T10:01:14;21.50;;;10.00;;
6598;SDS011;3335;43.198;27.918;2023-03-23T10:03:44;18.73;;;9.87;;
6598;SDS011;3335;43.198;27.918;2023-03-23T10:06:13;21.73;;;10.73;;
6598;SDS011;3335;43.198;27.918;2023-03-23T10:08:47;18.83;;;9.87;;
6598;SDS011;3335;43.198;27.918;2023-03-23T10:11:17;16.23;;;8.73;;
6598;SDS011;3335;43.198;27.918;2023-03-23T10:14:00;21.33;;;10.30;;
6598;SDS011;3335;43.198;27.918;2023-03-23T10:16:40;14.57;;;8.57;;
6598;SDS011;3335;43.198;27.918;2023-03-23T10:19:15;21.37;;;10.97;;
6598;SDS011;3335;43.198;27.918;2023-03-23T10:21:47;17.93;;;9.40;;
6598;SDS011;3335;43.198;27.918;2023-03-23T10:24:20;28.53;;;10.07;;
6598;SDS011;3335;43.198;27.918;2023-03-23T10:26:53;24.13;;;10.23;;
6598;SDS011;3335;43.198;27.918;2023-03-23T10:29:28;30.10;;;11.97;;
6598;SDS011;3335;43.198;27.918;2023-03-23T10:31:58;25.53;;;11.90;;
6598;SDS011;3335;43.198;27.918;2023-03-23T10:34:28;15.67;;;8.60;;
6598;SDS011;3335;43.198;27.918;2023-03-23T10:37:00;15.57;;;9.27;;
6598;SDS011;3335;43.198;27.918;2023-03-23T10:39:34;17.17;;;8.90;;
6598;SDS011;3335;43.198;27.918;2023-03-23T10:42:08;22.83;;;8.83;;
6598;SDS011;3335;43.198;27.918;2023-03-23T10:44:35;17.43;;;9.00;;
6598;SDS011;3335;43.198;27.918;2023-03-23T10:47:03;15.03;;;8.60;;
6598;SDS011;3335;43.198;27.918;2023-03-23T10:49:33;15.03;;;8.40;;
6598;SDS011;3335;43.198;27.918;2023-03-23T10:52:05;10.37;;;7.27;;
6598;SDS011;3335;43.198;27.918;2023-03-23T10:54:54;16.10;;;8.50;;
6598;SDS011;3335;43.198;27.918;2023-03-23T10:57:23;17.00;;;10.77;;
6598;SDS011;3335;43.198;27.918;2023-03-23T10:59:57;24.60;;;13.43;;
6598;SDS011;3335;43.198;27.918;2023-03-23T11:02:26;17.87;;;8.63;;
6598;SDS011;3335;43.198;27.918;2023-03-23T11:04:56;16.77;;;8.73;;
6598;SDS011;3335;43.198;27.918;2023-03-23T11:07:27;16.30;;;8.43;;
6598;SDS011;3335;43.198;27.918;2023-03-23T11:09:57;16.90;;;9.90;;
6598;SDS011;3335;43.198;27.918;2023-03-23T11:12:34;18.77;;;9.70;;
6598;SDS011;3335;43.198;27.918;2023-03-23T11:15:15;16.57;;;8.80;;
6598;SDS011;3335;43.198;27.918;2023-03-23T11:17:56;18.73;;;9.37;;
6598;SDS011;3335;43.198;27.918;2023-03-23T11:20:25;27.90;;;9.93;;
6598;SDS011;3335;43.198;27.918;2023-03-23T11:22:53;24.47;;;9.30;;
6598;SDS011;3335;43.198;27.918;2023-03-23T11:25:22;16.07;;;9.53;;
6598;SDS011;3335;43.198;27.918;2023-03-23T11:27:51;30.83;;;10.57;;
6598;SDS011;3335;43.198;27.918;2023-03-23T11:30:22;28.17;;;10.23;;
6598;SDS011;3335;43.198;27.918;2023-03-23T11:32:52;24.93;;;9.87;;
6598;SDS011;3335;43.198;27.918;2023-03-23T11:35:22;28.10;;;12.93;;
6598;SDS011;3335;43.198;27.918;2023-03-23T11:37:53;15.60;;;9.30;;
6598;SDS011;3335;43.198;27.918;2023-03-23T11:40:23;19.80;;;8.20;;
6598;SDS011;3335;43.198;27.918;2023-03-23T11:42:56;20.00;;;7.80;;
6598;SDS011;3335;43.198;27.918;2023-03-23T11:45:30;20.63;;;8.63;;
6598;SDS011;3335;43.198;27.918;2023-03-23T11:50:50;14.20;;;7.27;;
6598;SDS011;3335;43.198;27.918;2023-03-23T11:53:22;13.20;;;7.43;;
6598;SDS011;3335;43.198;27.918;2023-03-23T11:56:10;16.50;;;7.97;;
6598;SDS011;3335;43.198;27.918;2023-03-23T11:58:42;16.20;;;7.80;;
6598;SDS011;3335;43.198;27.918;2023-03-23T12:01:12;11.93;;;7.73;;
6598;SDS011;3335;43.198;27.918;2023-03-23T12:07:06;13.97;;;7.97;;
6598;SDS011;3335;43.198;27.918;2023-03-23T12:09:43;10.83;;;7.10;;
6598;SDS011;3335;43.198;27.918;2023-03-23T12:12:18;16.60;;;7.90;;
6598;SDS011;3335;43.198;27.918;2023-03-23T12:14:55;17.13;;;8.60;;
6598;SDS011;3335;43.198;27.918;2023-03-23T12:17:31;13.73;;;8.33;;
6598;SDS011;3335;43.198;27.918;2023-03-23T12:20:12;18.27;;;9.20;;
6598;SDS011;3335;43.198;27.918;2023-03-23T12:22:50;17.10;;;9.00;;
6598;SDS011;3335;43.198;27.918;2023-03-23T12:25:34;12.70;;;7.77;;
6598;SDS011;3335;43.198;27.918;2023-03-23T12:28:18;27.40;;;8.90;;
6598;SDS011;3335;43.198;27.918;2023-03-23T12:30:55;16.37;;;6.57;;
6598;SDS011;3335;43.198;27.918;2023-03-23T12:33:33;11.23;;;6.33;;
6598;SDS011;3335;43.198;27.918;2023-03-23T12:36:15;10.27;;;6.47;;
6598;SDS011;3335;43.198;27.918;2023-03-23T12:42:03;21.17;;;7.67;;
6598;SDS011;3335;43.198;27.918;2023-03-23T12:44:41;14.43;;;6.63;;
6598;SDS011;3335;43.198;27.918;2023-03-23T12:47:24;9.93;;;6.17;;
6598;SDS011;3335;43.198;27.918;2023-03-23T12:50:01;13.70;;;6.73;;
6598;SDS011;3335;43.198;27.918;2023-03-23T12:52:35;12.93;;;6.57;;
6598;SDS011;3335;43.198;27.918;2023-03-23T12:55:14;10.57;;;6.10;;
6598;SDS011;3335;43.198;27.918;2023-03-23T12:57:46;10.13;;;5.80;;
6598;SDS011;3335;43.198;27.918;2023-03-23T13:00:21;11.33;;;6.10;;
6598;SDS011;3335;43.198;27.918;2023-03-23T13:02:52;10.87;;;5.53;;
6598;SDS011;3335;43.198;27.918;2023-03-23T13:05:31;11.90;;;5.50;;
6598;SDS011;3335;43.198;27.918;2023-03-23T13:08:04;9.97;;;5.93;;
6598;SDS011;3335;43.198;27.918;2023-03-23T13:10:37;15.17;;;7.30;;
6598;SDS011;3335;43.198;27.918;2023-03-23T13:13:08;16.13;;;6.77;;
6598;SDS011;3335;43.198;27.918;2023-03-23T13:15:51;9.97;;;6.23;;
6598;SDS011;3335;43.198;27.918;2023-03-23T13:18:31;12.77;;;6.40;;
6598;SDS011;3335;43.198;27.918;2023-03-23T13:21:09;12.87;;;5.73;;
6598;SDS011;3335;43.198;27.918;2023-03-23T13:23:44;11.27;;;5.63;;
6598;SDS011;3335;43.198;27.918;2023-03-23T13:26:14;9.40;;;4.50;;
6598;SDS011;3335;43.198;27.918;2023-03-23T13:28:56;6.23;;;4.67;;
6598;SDS011;3335;43.198;27.918;2023-03-23T13:31:28;9.10;;;5.67;;
6598;SDS011;3335;43.198;27.918;2023-03-23T13:33:59;9.10;;;6.73;;
6598;SDS011;3335;43.198;27.918;2023-03-23T13:36:30;13.67;;;6.43;;
6598;SDS011;3335;43.198;27.918;2023-03-23T13:39:01;14.27;;;6.23;;
6598;SDS011;3335;43.198;27.918;2023-03-23T13:41:32;18.10;;;5.83;;
6598;SDS011;3335;43.198;27.918;2023-03-23T13:46:55;12.93;;;6.67;;
6598;SDS011;3335;43.198;27.918;2023-03-23T13:49:24;19.37;;;6.90;;
6598;SDS011;3335;43.198;27.918;2023-03-23T13:51:58;11.20;;;6.27;;
6598;SDS011;3335;43.198;27.918;2023-03-23T13:54:30;9.73;;;6.03;;
6598;SDS011;3335;43.198;27.918;2023-03-23T13:56:58;12.40;;;5.57;;
6598;SDS011;3335;43.198;27.918;2023-03-23T13:59:30;11.27;;;5.67;;
6598;SDS011;3335;43.198;27.918;2023-03-23T14:05:08;9.93;;;6.40;;
6598;SDS011;3335;43.198;27.918;2023-03-23T14:07:51;9.03;;;6.50;;
6598;SDS011;3335;43.198;27.918;2023-03-23T14:10:19;13.17;;;7.83;;
6598;SDS011;3335;43.198;27.918;2023-03-23T14:12:48;12.77;;;6.50;;
6598;SDS011;3335;43.198;27.918;2023-03-23T14:15:19;19.67;;;7.03;;
6598;SDS011;3335;43.198;27.918;2023-03-23T14:17:47;11.33;;;6.83;;
6598;SDS011;3335;43.198;27.918;2023-03-23T14:20:19;12.87;;;6.83;;
6598;SDS011;3335;43.198;27.918;2023-03-23T14:22:53;11.80;;;6.27;;
6598;SDS011;3335;43.198;27.918;2023-03-23T14:25:21;12.87;;;7.20;;
6598;SDS011;3335;43.198;27.918;2023-03-23T14:27:52;18.90;;;7.57;;
6598;SDS011;3335;43.198;27.918;2023-03-23T14:30:20;9.87;;;6.67;;
6598;SDS011;3335;43.198;27.918;2023-03-23T14:32:51;16.80;;;6.50;;
6598;SDS011;3335;43.198;27.918;2023-03-23T14:35:22;13.47;;;7.50;;
6598;SDS011;3335;43.198;27.918;2023-03-23T14:37:52;13.93;;;7.00;;
6598;SDS011;3335;43.198;27.918;2023-03-23T14:40:20;12.33;;;7.10;;
6598;SDS011;3335;43.198;27.918;2023-03-23T14:42:47;9.53;;;6.63;;
6598;SDS011;3335;43.198;27.918;2023-03-23T14:45:19;14.27;;;7.10;;
6598;SDS011;3335;43.198;27.918;2023-03-23T14:47:48;12.83;;;7.63;;
6598;SDS011;3335;43.198;27.918;2023-03-23T14:50:23;16.90;;;7.80;;
6598;SDS011;3335;43.198;27.918;2023-03-23T14:52:55;16.33;;;7.53;;
6598;SDS011;3335;43.198;27.918;2023-03-23T14:55:24;12.03;;;6.90;;
6598;SDS011;3335;43.198;27.918;2023-03-23T14:57:55;10.90;;;7.33;;
6598;SDS011;3335;43.198;27.918;2023-03-23T15:00:34;13.93;;;7.80;;
6598;SDS011;3335;43.198;27.918;2023-03-23T15:03:03;15.37;;;9.43;;
6598;SDS011;3335;43.198;27.918;2023-03-23T15:05:33;15.50;;;9.97;;
6598;SDS011;3335;43.198;27.918;2023-03-23T15:08:05;27.33;;;14.13;;
6598;SDS011;3335;43.198;27.918;2023-03-23T15:10:34;30.83;;;16.63;;
6598;SDS011;3335;43.198;27.918;2023-03-23T15:13:01;21.67;;;11.90;;
6598;SDS011;3335;43.198;27.918;2023-03-23T15:15:29;54.73;;;28.57;;
6598;SDS011;3335;43.198;27.918;2023-03-23T15:17:58;49.97;;;29.87;;
6598;SDS011;3335;43.198;27.918;2023-03-23T15:20:27;57.53;;;34.93;;
6598;SDS011;3335;43.198;27.918;2023-03-23T15:23:04;19.57;;;12.53;;